Terminal Aerodrome Forecast
Issued by NWS Louisville, KY

Home | Current Version | Previous Version | Text Only | Print | Product List | Glossary On
Versions: 1 2 3 4 5 6 7 8 9 10 11 12 13 14 15 16 17 18 19 20
000
FTUS43 KLMK 050118 AAA
TAFBWG
TAF AMD
KBWG 050118Z 0501/0524 30006KT P6SM OVC015
     FM050600 VRB03KT 2SM BR OVC005
      TEMPO 0508/0512 3/4SM BR OVC002
     FM051500 08005KT P6SM BKN015
     FM051900 10006KT P6SM BKN035=

USA.gov is the U.S. government's official web portal to all federal, state and local government web resources and services.